createdAt,value
2018-08-12T00:00:42.625Z,18.35
2018-08-12T00:03:13.860Z,18.33
2018-08-12T00:05:44.400Z,18.33
2018-08-12T00:08:15.198Z,18.36
2018-08-12T00:10:47.159Z,18.36
2018-08-12T00:13:18.227Z,18.37
2018-08-12T00:15:48.584Z,18.37
2018-08-12T00:18:20.418Z,18.35
2018-08-12T00:20:49.852Z,18.33
2018-08-12T00:23:19.763Z,18.30
2018-08-12T00:25:49.684Z,18.29
2018-08-12T00:28:19.462Z,18.27
2018-08-12T00:30:52.169Z,18.23
2018-08-12T00:33:22.893Z,18.21
2018-08-12T00:35:54.991Z,18.19
2018-08-12T00:38:26.912Z,18.16
2018-08-12T00:40:58.443Z,18.13
2018-08-12T00:43:29.672Z,18.12
2018-08-12T00:46:03.165Z,18.11
2018-08-12T00:48:34.142Z,18.14
2018-08-12T00:51:05.727Z,18.16
2018-08-12T00:53:35.769Z,18.17
2018-08-12T00:56:06.194Z,18.19
2018-08-12T00:58:36.211Z,18.21
2018-08-12T01:01:07.824Z,18.23
2018-08-12T01:03:37.223Z,18.25
2018-08-12T01:06:06.634Z,18.28
2018-08-12T01:08:37.252Z,18.29
2018-08-12T01:11:08.880Z,18.32
2018-08-12T01:13:39.624Z,18.36
2018-08-12T01:16:09.731Z,18.39
2018-08-12T01:18:43.064Z,18.40
2018-08-12T01:21:12.559Z,18.43
2018-08-12T01:23:43.453Z,18.46
2018-08-12T01:26:13.201Z,18.45
2018-08-12T01:28:43.686Z,18.46
2018-08-12T01:31:14.965Z,18.47
2018-08-12T01:33:46.362Z,18.44
2018-08-12T01:36:15.642Z,18.41
2018-08-12T01:38:45.770Z,18.38
2018-08-12T01:41:19.421Z,18.36
2018-08-12T01:43:49.868Z,18.32
2018-08-12T01:46:20.645Z,18.26
2018-08-12T01:48:51.335Z,18.22
2018-08-12T01:51:23.053Z,18.15
2018-08-12T01:53:52.197Z,18.08
2018-08-12T01:56:21.346Z,18.01
2018-08-12T01:58:50.440Z,17.97
2018-08-12T02:01:22.671Z,17.94
2018-08-12T02:03:52.749Z,17.91
2018-08-12T02:06:23.569Z,17.87
2018-08-12T02:08:54.131Z,17.84
2018-08-12T02:11:24.554Z,17.82
2018-08-12T02:13:56.070Z,17.79
2018-08-12T02:16:26.850Z,17.78
2018-08-12T02:18:58.773Z,17.74
2018-08-12T02:21:28.829Z,17.71
2018-08-12T02:23:58.067Z,17.70
2018-08-12T02:26:32.889Z,17.69
2018-08-12T02:29:02.024Z,17.67
2018-08-12T02:31:31.096Z,17.65
2018-08-12T02:34:02.827Z,17.64
2018-08-12T02:36:35.130Z,17.63
2018-08-12T02:39:07.262Z,17.61
2018-08-12T02:41:38.012Z,17.57
2018-08-12T02:44:08.320Z,17.55
2018-08-12T02:46:39.091Z,17.53
2018-08-12T02:49:09.323Z,17.50
2018-08-12T02:51:39.340Z,17.48
2018-08-12T02:54:10.021Z,17.43
2018-08-12T02:56:39.209Z,17.39
2018-08-12T02:59:11.209Z,17.34
2018-08-12T03:01:41.229Z,17.29
2018-08-12T03:04:11.060Z,17.25
2018-08-12T03:06:42.750Z,17.25
2018-08-12T03:09:13.274Z,17.24
2018-08-12T03:11:44.825Z,17.21
2018-08-12T03:14:14.960Z,17.19
2018-08-12T03:16:46.128Z,17.19
2018-08-12T03:19:15.690Z,17.18
2018-08-12T03:21:45.242Z,17.18
2018-08-12T03:24:14.911Z,17.19
2018-08-12T03:26:46.393Z,17.23
2018-08-12T03:29:16.984Z,17.24
2018-08-12T03:31:48.152Z,17.24
2018-08-12T03:34:17.653Z,17.26
2018-08-12T03:36:47.722Z,17.25
2018-08-12T03:39:18.299Z,17.23
2018-08-12T03:41:48.961Z,17.22
2018-08-12T03:44:21.267Z,17.20
2018-08-12T03:46:51.238Z,17.17
2018-08-12T03:49:21.403Z,17.16
2018-08-12T03:51:51.679Z,17.15
2018-08-12T03:54:22.621Z,17.14
2018-08-12T03:56:51.808Z,17.12
2018-08-12T03:59:20.911Z,17.10
2018-08-12T04:01:50.143Z,17.09
2018-08-12T04:04:19.332Z,17.09
2018-08-12T04:06:48.745Z,17.07
2018-08-12T04:09:18.008Z,17.07
2018-08-12T04:11:47.261Z,17.08
2018-08-12T04:14:16.711Z,17.09
2018-08-12T04:16:54.003Z,17.10
2018-08-12T04:19:23.373Z,17.11
2018-08-12T04:21:55.500Z,17.12
2018-08-12T04:24:26.843Z,17.17
2018-08-12T04:26:57.753Z,17.20
2018-08-12T04:29:30.171Z,17.26
2018-08-12T04:32:00.158Z,17.34
2018-08-12T04:34:31.848Z,17.47
2018-08-12T04:37:01.955Z,17.61
2018-08-12T04:39:32.764Z,17.79
2018-08-12T04:42:01.965Z,17.96
2018-08-12T04:44:31.090Z,18.17
2018-08-12T04:47:00.266Z,18.45
2018-08-12T04:49:29.964Z,18.77
2018-08-12T04:51:59.422Z,19.13
2018-08-12T04:54:28.981Z,19.51
2018-08-12T04:56:58.471Z,19.89
2018-08-12T04:59:27.772Z,20.25
2018-08-12T05:01:57.134Z,20.53
2018-08-12T05:04:26.353Z,20.74
2018-08-12T05:06:55.697Z,20.86
2018-08-12T05:09:24.911Z,21.03
2018-08-12T05:11:54.060Z,21.22
2018-08-12T05:14:23.260Z,21.40
2018-08-12T05:16:52.913Z,21.47
2018-08-12T05:19:21.983Z,21.46
2018-08-12T05:21:58.079Z,21.43
2018-08-12T05:24:27.696Z,21.38
2018-08-12T05:26:56.900Z,21.37
2018-08-12T05:29:26.026Z,21.42
2018-08-12T05:31:55.421Z,21.48
2018-08-12T05:34:25.465Z,21.62
2018-08-12T05:36:54.827Z,21.79
2018-08-12T05:39:24.337Z,21.98
2018-08-12T05:41:53.736Z,22.19
2018-08-12T05:44:22.932Z,22.48
2018-08-12T05:46:52.358Z,22.91
2018-08-12T05:49:21.742Z,23.41
2018-08-12T05:51:51.259Z,23.90
2018-08-12T05:54:20.786Z,24.45
2018-08-12T05:56:50.046Z,25.08
2018-08-12T05:59:19.240Z,25.81
2018-08-12T06:01:48.436Z,26.56
2018-08-12T06:04:17.800Z,27.31
2018-08-12T06:06:47.147Z,28.02
2018-08-12T06:09:16.530Z,28.65
2018-08-12T06:11:45.860Z,29.21
2018-08-12T06:14:15.037Z,29.80
2018-08-12T06:16:44.435Z,30.40
2018-08-12T06:19:13.943Z,30.99
2018-08-12T06:21:44.215Z,31.48
2018-08-12T06:24:13.579Z,31.92
2018-08-12T06:26:43.036Z,32.24
2018-08-12T06:29:13.489Z,32.51
2018-08-12T06:31:42.872Z,32.78
2018-08-12T06:34:12.199Z,33.04
2018-08-12T06:36:41.440Z,33.32
2018-08-12T06:39:12.025Z,33.68
2018-08-12T06:41:41.573Z,33.92
2018-08-12T06:44:10.932Z,34.04
2018-08-12T06:46:40.282Z,34.13
2018-08-12T06:49:09.850Z,34.27
2018-08-12T06:51:39.679Z,34.50
2018-08-12T06:54:09.188Z,34.79
2018-08-12T06:56:38.702Z,35.14
2018-08-12T06:59:08.596Z,35.41
2018-08-12T07:01:40.016Z,35.58
2018-08-12T07:04:10.586Z,35.70
2018-08-12T07:06:42.183Z,35.82
2018-08-12T07:09:12.554Z,35.90
2018-08-12T07:11:44.553Z,35.87
2018-08-12T07:14:16.140Z,35.83
2018-08-12T07:16:45.913Z,35.95
2018-08-12T07:19:18.238Z,36.05
2018-08-12T07:21:49.168Z,36.22
2018-08-12T07:24:18.544Z,36.30
2018-08-12T07:26:47.751Z,36.32
2018-08-12T07:29:17.059Z,36.26
2018-08-12T07:31:47.787Z,36.23
2018-08-12T07:34:18.338Z,36.33
2018-08-12T07:36:47.479Z,36.32
2018-08-12T07:39:16.889Z,36.33
2018-08-12T07:41:46.197Z,36.30
2018-08-12T07:44:15.779Z,36.33
2018-08-12T07:46:45.729Z,36.28
2018-08-12T07:49:15.093Z,36.12
2018-08-12T07:51:44.565Z,36.11
2018-08-12T07:54:13.892Z,36.10
2018-08-12T07:56:43.208Z,36.10
2018-08-12T07:59:12.563Z,36.15
2018-08-12T08:01:42.725Z,36.29
2018-08-12T08:04:12.084Z,36.41
2018-08-12T08:06:41.446Z,36.47
2018-08-12T08:09:12.329Z,36.58
2018-08-12T08:11:42.218Z,36.75
2018-08-12T08:14:11.520Z,37.03
2018-08-12T08:16:40.981Z,37.32
2018-08-12T08:19:10.547Z,37.68
2018-08-12T08:21:41.200Z,38.06
2018-08-12T08:24:10.703Z,38.36
2018-08-12T08:26:39.973Z,38.40
2018-08-12T08:29:09.968Z,38.34
2018-08-12T08:31:40.249Z,38.42
2018-08-12T08:34:09.609Z,38.54
2018-08-12T08:36:39.221Z,38.51
2018-08-12T08:39:12.608Z,38.49
2018-08-12T08:41:42.226Z,38.56
2018-08-12T08:44:11.873Z,38.51
2018-08-12T08:46:41.624Z,38.57
2018-08-12T08:49:11.115Z,38.82
2018-08-12T08:51:40.654Z,39.08
2018-08-12T08:54:10.544Z,39.29
2018-08-12T08:56:40.129Z,39.27
2018-08-12T08:59:10.044Z,39.11
2018-08-12T09:01:39.365Z,39.20
2018-08-12T09:04:08.818Z,39.41
2018-08-12T09:06:38.255Z,39.59
2018-08-12T09:09:12.814Z,39.64
2018-08-12T09:11:42.022Z,39.56
2018-08-12T09:14:11.979Z,39.30
2018-08-12T09:16:42.803Z,38.96
2018-08-12T09:19:12.461Z,38.82
2018-08-12T09:21:42.046Z,38.75
2018-08-12T09:24:11.358Z,38.80
2018-08-12T09:26:40.972Z,38.84
2018-08-12T09:29:10.716Z,38.84
2018-08-12T09:31:40.215Z,38.98
2018-08-12T09:34:09.985Z,39.01
2018-08-12T09:36:39.371Z,38.85
2018-08-12T09:39:11.793Z,38.64
2018-08-12T09:41:42.024Z,38.47
2018-08-12T09:44:11.400Z,38.29
2018-08-12T09:46:40.865Z,38.13
2018-08-12T09:49:10.541Z,38.11
2018-08-12T09:51:40.632Z,38.24
2018-08-12T09:54:10.149Z,38.39
2018-08-12T09:56:39.881Z,38.49
2018-08-12T09:59:09.589Z,38.54
2018-08-12T10:01:39.966Z,38.56
2018-08-12T10:04:10.638Z,38.52
2018-08-12T10:06:40.872Z,38.48
2018-08-12T10:09:12.416Z,38.44
2018-08-12T10:11:41.964Z,38.31
2018-08-12T10:14:12.375Z,38.23
2018-08-12T10:16:42.313Z,38.21
2018-08-12T10:19:13.516Z,38.28
2018-08-12T10:21:43.544Z,38.35
2018-08-12T10:24:13.758Z,38.34
2018-08-12T10:26:45.473Z,38.29
2018-08-12T10:29:14.875Z,38.07
2018-08-12T10:31:44.358Z,37.78
2018-08-12T10:34:13.788Z,37.58
2018-08-12T10:36:46.132Z,37.40
2018-08-12T10:39:16.889Z,37.23
2018-08-12T10:44:26.281Z,36.84
2018-08-12T10:46:55.543Z,36.83
2018-08-12T10:49:24.991Z,36.99
2018-08-12T10:51:54.762Z,37.18
2018-08-12T10:54:24.436Z,37.33
2018-08-12T10:56:54.100Z,37.37
2018-08-12T10:59:23.851Z,37.43
2018-08-12T11:01:53.642Z,37.44
2018-08-12T11:04:22.886Z,37.53
2018-08-12T11:06:52.380Z,37.58
2018-08-12T11:09:21.685Z,37.53
2018-08-12T11:11:52.124Z,37.53
2018-08-12T11:14:21.529Z,37.59
2018-08-12T11:16:52.510Z,37.56
2018-08-12T11:19:21.700Z,37.29
2018-08-12T11:21:50.870Z,36.87
2018-08-12T11:24:20.024Z,36.47
2018-08-12T11:26:49.358Z,36.24
2018-08-12T11:29:18.635Z,36.05
2018-08-12T11:31:48.604Z,35.91
2018-08-12T11:34:18.055Z,35.79
2018-08-12T11:36:47.680Z,35.71
2018-08-12T11:39:18.799Z,35.67
2018-08-12T11:41:48.434Z,35.70
2018-08-12T11:44:17.963Z,35.73
2018-08-12T11:46:47.439Z,35.81
2018-08-12T11:49:16.866Z,35.85
2018-08-12T11:51:46.442Z,35.86
2018-08-12T11:54:15.796Z,36.04
2018-08-12T11:56:45.310Z,36.33
2018-08-12T11:59:14.775Z,36.55
2018-08-12T12:01:44.020Z,36.61
2018-08-12T12:04:13.414Z,36.47
2018-08-12T12:06:42.781Z,36.27
2018-08-12T12:09:12.294Z,36.08
2018-08-12T12:11:42.515Z,35.91
2018-08-12T12:14:12.130Z,35.73
2018-08-12T12:16:42.044Z,35.63
2018-08-12T12:19:11.501Z,35.53
2018-08-12T12:21:41.283Z,35.54
2018-08-12T12:24:10.973Z,35.56
2018-08-12T12:26:40.757Z,35.58
2018-08-12T12:29:10.554Z,35.57
2018-08-12T12:31:39.972Z,35.53
2018-08-12T12:34:09.971Z,35.49
2018-08-12T12:36:40.447Z,35.49
2018-08-12T12:39:11.468Z,35.46
2018-08-12T12:41:41.566Z,35.42
2018-08-12T12:44:12.114Z,35.30
2018-08-12T12:46:41.780Z,35.17
2018-08-12T12:49:11.475Z,35.00
2018-08-12T12:51:42.438Z,34.80
2018-08-12T12:54:11.974Z,34.59
2018-08-12T12:56:41.366Z,34.46
2018-08-12T12:59:11.374Z,34.46
2018-08-12T13:01:40.972Z,34.53
2018-08-12T13:04:10.302Z,34.64
2018-08-12T13:06:39.832Z,34.74
2018-08-12T13:09:12.609Z,34.75
2018-08-12T13:11:42.521Z,34.80
2018-08-12T13:14:12.098Z,34.93
2018-08-12T13:16:44.205Z,35.16
2018-08-12T13:19:13.975Z,35.47
2018-08-12T13:21:43.094Z,35.52
2018-08-12T13:24:12.541Z,35.49
2018-08-12T13:26:41.898Z,35.46
2018-08-12T13:29:12.038Z,35.47
2018-08-12T13:31:41.393Z,35.54
2018-08-12T13:34:10.744Z,35.56
2018-08-12T13:36:40.118Z,35.53
2018-08-12T13:39:11.849Z,35.38
2018-08-12T13:41:41.222Z,35.17
2018-08-12T13:44:11.066Z,35.01
2018-08-12T13:46:40.611Z,34.96
2018-08-12T13:49:11.094Z,35.01
2018-08-12T13:51:40.536Z,35.05
2018-08-12T13:54:09.902Z,35.05
2018-08-12T13:56:40.999Z,35.09
2018-08-12T13:59:12.226Z,35.18
2018-08-12T14:01:41.840Z,35.35
2018-08-12T14:04:11.297Z,35.50
2018-08-12T14:06:41.805Z,35.59
2018-08-12T14:09:11.735Z,35.57
2018-08-12T14:11:41.197Z,35.52
2018-08-12T14:14:10.627Z,35.45
2018-08-12T14:16:40.183Z,35.35
2018-08-12T14:19:09.676Z,35.21
2018-08-12T14:21:38.858Z,35.12
2018-08-12T14:24:08.481Z,35.13
2018-08-12T14:26:37.733Z,35.17
2018-08-12T14:29:06.940Z,35.21
2018-08-12T14:31:36.118Z,35.27
2018-08-12T14:34:05.554Z,35.30
2018-08-12T14:36:35.133Z,35.29
2018-08-12T14:39:06.187Z,35.09
2018-08-12T14:41:35.423Z,34.79
2018-08-12T14:44:04.766Z,34.57
2018-08-12T14:46:34.082Z,34.53
2018-08-12T14:49:03.600Z,34.51
2018-08-12T14:51:32.855Z,34.49
2018-08-12T14:54:01.955Z,34.49
2018-08-12T14:56:31.156Z,34.53
2018-08-12T14:59:00.334Z,34.53
2018-08-12T15:01:29.800Z,34.51
2018-08-12T15:03:59.015Z,34.49
2018-08-12T15:06:28.268Z,34.46
2018-08-12T15:08:57.389Z,34.42
2018-08-12T15:11:26.763Z,34.77
2018-08-12T15:13:55.996Z,34.59
2018-08-12T15:16:25.244Z,34.38
2018-08-12T15:18:54.648Z,34.16
2018-08-12T15:21:23.921Z,34.03
2018-08-12T15:23:53.124Z,33.92
2018-08-12T15:26:22.319Z,33.87
2018-08-12T15:28:51.542Z,33.83
2018-08-12T15:31:20.791Z,33.78
2018-08-12T15:33:50.088Z,33.74
2018-08-12T15:36:19.650Z,33.67
2018-08-12T15:38:48.967Z,33.57
2018-08-12T15:41:18.175Z,33.54
2018-08-12T15:43:47.343Z,33.50
2018-08-12T15:46:16.689Z,33.46
2018-08-12T15:48:46.116Z,33.39
2018-08-12T15:51:15.446Z,33.30
2018-08-12T15:53:44.677Z,33.23
2018-08-12T15:56:13.923Z,33.16
2018-08-12T15:58:43.322Z,33.10
2018-08-12T16:01:12.461Z,33.05
2018-08-12T16:03:42.233Z,32.95
2018-08-12T16:06:11.452Z,32.93
2018-08-12T16:08:40.777Z,32.93
2018-08-12T16:11:10.221Z,32.96
2018-08-12T16:13:39.683Z,32.99
2018-08-12T16:16:09.110Z,33.04
2018-08-12T16:18:38.319Z,33.10
2018-08-12T16:21:07.872Z,33.16
2018-08-12T16:23:37.099Z,33.23
2018-08-12T16:26:06.388Z,33.26
2018-08-12T16:28:35.667Z,33.28
2018-08-12T16:31:04.896Z,33.29
2018-08-12T16:33:34.014Z,33.28
2018-08-12T16:36:03.192Z,33.24
2018-08-12T16:38:32.413Z,33.21
2018-08-12T16:41:01.623Z,33.16
2018-08-12T16:43:31.564Z,33.14
2018-08-12T16:46:00.716Z,33.12
2018-08-12T16:48:30.370Z,33.11
2018-08-12T16:50:59.644Z,33.12
2018-08-12T16:53:28.835Z,33.11
2018-08-12T16:55:58.048Z,33.07
2018-08-12T16:58:27.160Z,32.96
2018-08-12T17:00:56.356Z,32.84
2018-08-12T17:03:26.512Z,32.70
2018-08-12T17:05:55.921Z,32.59
2018-08-12T17:08:25.083Z,32.51
2018-08-12T17:10:54.309Z,32.45
2018-08-12T17:13:23.459Z,32.40
2018-08-12T17:15:52.727Z,32.36
2018-08-12T17:18:21.983Z,32.31
2018-08-12T17:20:51.206Z,32.27
2018-08-12T17:23:20.468Z,32.25
2018-08-12T17:25:49.781Z,32.21
2018-08-12T17:28:18.775Z,32.15
2018-08-12T17:30:47.941Z,32.10
2018-08-12T17:33:17.164Z,32.04
2018-08-12T17:35:46.414Z,31.97
2018-08-12T17:38:15.656Z,31.93
2018-08-12T17:40:45.019Z,31.84
2018-08-12T17:43:14.224Z,31.73
2018-08-12T17:45:43.360Z,31.61
2018-08-12T17:48:13.117Z,31.47
2018-08-12T17:50:42.232Z,31.35
2018-08-12T17:53:11.927Z,31.26
2018-08-12T17:55:41.456Z,31.14
2018-08-12T17:58:11.113Z,31.03
2018-08-12T18:00:41.900Z,30.92
2018-08-12T18:03:12.086Z,31.06
2018-08-12T18:05:41.264Z,30.89
2018-08-12T18:08:10.834Z,30.72
2018-08-12T18:10:40.154Z,30.60
2018-08-12T18:13:10.362Z,30.49
2018-08-12T18:15:40.221Z,30.37
2018-08-12T18:18:10.231Z,30.26
2018-08-12T18:20:40.174Z,30.16
2018-08-12T18:23:10.105Z,30.06
2018-08-12T18:25:40.376Z,29.99
2018-08-12T18:28:10.250Z,29.88
2018-08-12T18:30:39.813Z,29.79
2018-08-12T18:33:09.947Z,29.68
2018-08-12T18:35:39.273Z,29.57
2018-08-12T18:38:08.579Z,29.46
2018-08-12T18:40:38.766Z,29.35
2018-08-12T18:43:08.125Z,29.24
2018-08-12T18:45:37.936Z,29.12
2018-08-12T18:48:07.370Z,29.01
2018-08-12T18:50:36.609Z,28.90
2018-08-12T18:53:05.847Z,28.79
2018-08-12T18:55:35.158Z,28.68
2018-08-12T18:58:05.304Z,28.54
2018-08-12T19:00:34.696Z,28.39
2018-08-12T19:03:04.061Z,28.27
2018-08-12T19:05:33.268Z,28.10
2018-08-12T19:08:02.589Z,27.99
2018-08-12T19:10:31.799Z,27.86
2018-08-12T19:13:01.001Z,27.75
2018-08-12T19:15:30.317Z,27.63
2018-08-12T19:18:01.416Z,27.52
2018-08-12T19:20:30.588Z,27.43
2018-08-12T19:23:04.031Z,27.32
2018-08-12T19:25:33.651Z,27.21
2018-08-12T19:28:02.814Z,27.12
2018-08-12T19:30:32.010Z,27.03
2018-08-12T19:33:01.191Z,26.93
2018-08-12T19:35:30.382Z,26.85
2018-08-12T19:38:03.450Z,26.78
2018-08-12T19:40:32.803Z,26.71
2018-08-12T19:43:02.227Z,26.63
2018-08-12T19:45:31.469Z,26.56
2018-08-12T19:48:00.801Z,26.51
2018-08-12T19:50:30.147Z,26.46
2018-08-12T19:52:59.462Z,26.41
2018-08-12T19:55:28.831Z,26.36
2018-08-12T19:57:58.055Z,26.29
2018-08-12T20:00:27.273Z,26.23
2018-08-12T20:02:56.352Z,26.17
2018-08-12T20:05:25.627Z,26.10
2018-08-12T20:07:54.852Z,26.04
2018-08-12T20:10:24.030Z,25.95
2018-08-12T20:12:53.105Z,25.91
2018-08-12T20:15:22.352Z,25.87
2018-08-12T20:17:51.423Z,25.81
2018-08-12T20:20:20.524Z,25.75
2018-08-12T20:22:49.675Z,25.70
2018-08-12T20:25:19.118Z,25.64
2018-08-12T20:27:48.240Z,25.59
2018-08-12T20:30:17.341Z,25.53
2018-08-12T20:32:46.494Z,25.50
2018-08-12T20:35:15.940Z,25.46
2018-08-12T20:37:45.053Z,25.43
2018-08-12T20:40:14.257Z,25.37
2018-08-12T20:42:43.374Z,25.31
2018-08-12T20:45:12.586Z,25.28
2018-08-12T20:47:41.892Z,25.48
2018-08-12T20:50:11.744Z,25.41
2018-08-12T20:52:41.766Z,25.28
2018-08-12T20:55:12.076Z,25.19
2018-08-12T20:57:41.198Z,25.13
2018-08-12T21:00:11.345Z,25.06
2018-08-12T21:02:40.548Z,25.01
2018-08-12T21:05:10.764Z,24.95
2018-08-12T21:07:41.300Z,24.90
2018-08-12T21:10:11.499Z,24.83
2018-08-12T21:12:41.476Z,24.78
2018-08-12T21:15:10.647Z,24.72
2018-08-12T21:17:39.736Z,24.68
2018-08-12T21:20:08.866Z,24.62
2018-08-12T21:22:38.460Z,24.55
2018-08-12T21:25:08.222Z,24.48
2018-08-12T21:27:37.833Z,24.39
2018-08-12T21:30:07.160Z,24.31
2018-08-12T21:32:36.206Z,24.24
2018-08-12T21:35:05.332Z,24.17
2018-08-12T21:37:34.878Z,24.09
2018-08-12T21:40:04.186Z,24.01
2018-08-12T21:42:33.279Z,23.91
2018-08-12T21:45:02.421Z,23.79
2018-08-12T21:47:31.477Z,23.68
2018-08-12T21:50:00.941Z,23.61
2018-08-12T21:52:31.313Z,23.54
2018-08-12T21:55:01.236Z,23.50
2018-08-12T21:57:30.509Z,23.41
2018-08-12T21:59:59.663Z,23.38
2018-08-12T22:02:28.922Z,23.33
2018-08-12T22:04:58.249Z,23.26
2018-08-12T22:07:27.352Z,23.20
2018-08-12T22:09:56.546Z,23.12
2018-08-12T22:12:25.687Z,23.07
2018-08-12T22:14:54.856Z,23.04
2018-08-12T22:17:23.967Z,23.04
2018-08-12T22:19:53.098Z,23.03
2018-08-12T22:22:22.224Z,23.04
2018-08-12T22:24:51.391Z,23.03
2018-08-12T22:27:20.536Z,23.02
2018-08-12T22:29:49.720Z,23.00
2018-08-12T22:32:18.801Z,22.96
2018-08-12T22:34:47.853Z,22.94
2018-08-12T22:37:16.994Z,22.92
2018-08-12T22:39:48.968Z,22.94
2018-08-12T22:42:18.075Z,22.96
2018-08-12T22:44:47.132Z,23.00
2018-08-12T22:47:16.235Z,23.04
2018-08-12T22:49:45.452Z,23.09
2018-08-12T22:52:14.616Z,23.16
2018-08-12T22:54:43.771Z,23.20
2018-08-12T22:57:12.976Z,23.24
2018-08-12T22:59:42.181Z,23.31
2018-08-12T23:02:11.485Z,23.36
2018-08-12T23:04:40.649Z,23.43
2018-08-12T23:07:10.475Z,23.50
2018-08-12T23:09:39.789Z,23.54
2018-08-12T23:12:08.944Z,23.62
2018-08-12T23:14:38.094Z,23.67
2018-08-12T23:17:07.140Z,23.73
2018-08-12T23:19:36.246Z,23.81
2018-08-12T23:22:05.361Z,23.87
2018-08-12T23:24:34.448Z,23.94
2018-08-12T23:27:03.541Z,23.98
2018-08-12T23:29:32.606Z,24.02
2018-08-12T23:32:01.735Z,24.06
2018-08-12T23:34:30.778Z,24.06
2018-08-12T23:36:59.903Z,24.08
2018-08-12T23:39:28.988Z,24.10
2018-08-12T23:41:58.027Z,24.11
2018-08-12T23:44:27.214Z,24.13
2018-08-12T23:46:56.469Z,24.15
2018-08-12T23:49:25.512Z,24.14
2018-08-12T23:51:54.737Z,24.11
2018-08-12T23:54:23.917Z,24.08
2018-08-12T23:56:52.965Z,24.04
2018-08-12T23:59:22.052Z,24.01
